sensor_id;sensor_type;location;lat;lon;timestamp;P1;durP1;ratioP1;P2;durP2;ratioP2
25443;SDS011;13368;52.346;4.678;2022-08-25T00:00:00;1.6;;;1.4;;
25443;SDS011;13368;52.346;4.678;2022-08-25T00:05:00;4.5;;;1.4;;
25443;SDS011;13368;52.346;4.678;2022-08-25T00:10:00;1.6;;;1.5;;
25443;SDS011;13368;52.346;4.678;2022-08-25T00:15:00;1.2;;;1.1;;
25443;SDS011;13368;52.346;4.678;2022-08-25T00:20:00;1.4;;;1.3;;
25443;SDS011;13368;52.346;4.678;2022-08-25T00:25:00;2.4;;;1.5;;
25443;SDS011;13368;52.346;4.678;2022-08-25T00:30:00;1.5;;;1.2;;
25443;SDS011;13368;52.346;4.678;2022-08-25T00:35:00;1.8;;;1.5;;
25443;SDS011;13368;52.346;4.678;2022-08-25T00:40:00;2.8;;;1.6;;
25443;SDS011;13368;52.346;4.678;2022-08-25T00:45:00;2.1;;;1.6;;
25443;SDS011;13368;52.346;4.678;2022-08-25T00:50:00;2.6;;;1.4;;
25443;SDS011;13368;52.346;4.678;2022-08-25T00:55:01;2.0;;;1.6;;
25443;SDS011;13368;52.346;4.678;2022-08-25T01:00:00;3.7;;;1.8;;
25443;SDS011;13368;52.346;4.678;2022-08-25T01:05:00;1.8;;;1.3;;
25443;SDS011;13368;52.346;4.678;2022-08-25T01:10:00;1.8;;;1.6;;
25443;SDS011;13368;52.346;4.678;2022-08-25T01:15:00;2.3;;;1.9;;
25443;SDS011;13368;52.346;4.678;2022-08-25T01:20:00;1.7;;;1.2;;
25443;SDS011;13368;52.346;4.678;2022-08-25T01:25:01;1.5;;;1.2;;
25443;SDS011;13368;52.346;4.678;2022-08-25T01:30:00;1.4;;;1.3;;
25443;SDS011;13368;52.346;4.678;2022-08-25T01:35:00;1.5;;;1.4;;
25443;SDS011;13368;52.346;4.678;2022-08-25T01:40:00;1.1;;;1.0;;
25443;SDS011;13368;52.346;4.678;2022-08-25T01:45:00;2.3;;;1.7;;
25443;SDS011;13368;52.346;4.678;2022-08-25T01:50:00;2.5;;;1.2;;
25443;SDS011;13368;52.346;4.678;2022-08-25T01:55:00;1.5;;;1.3;;
25443;SDS011;13368;52.346;4.678;2022-08-25T02:00:00;3.3;;;1.6;;
25443;SDS011;13368;52.346;4.678;2022-08-25T02:05:00;2.0;;;1.3;;
25443;SDS011;13368;52.346;4.678;2022-08-25T02:10:01;1.8;;;1.7;;
25443;SDS011;13368;52.346;4.678;2022-08-25T02:15:00;2.6;;;1.5;;
25443;SDS011;13368;52.346;4.678;2022-08-25T02:20:00;1.6;;;1.5;;
25443;SDS011;13368;52.346;4.678;2022-08-25T02:25:00;3.0;;;1.8;;
25443;SDS011;13368;52.346;4.678;2022-08-25T02:30:00;1.5;;;1.2;;
25443;SDS011;13368;52.346;4.678;2022-08-25T02:35:00;1.1;;;1.0;;
25443;SDS011;13368;52.346;4.678;2022-08-25T02:40:00;3.0;;;1.6;;
25443;SDS011;13368;52.346;4.678;2022-08-25T02:45:00;2.0;;;1.3;;
25443;SDS011;13368;52.346;4.678;2022-08-25T02:50:00;1.6;;;1.4;;
25443;SDS011;13368;52.346;4.678;2022-08-25T02:55:00;1.2;;;1.1;;
25443;SDS011;13368;52.346;4.678;2022-08-25T03:00:00;2.0;;;1.5;;
25443;SDS011;13368;52.346;4.678;2022-08-25T03:05:00;1.7;;;1.6;;
25443;SDS011;13368;52.346;4.678;2022-08-25T03:10:02;1.3;;;1.2;;
25443;SDS011;13368;52.346;4.678;2022-08-25T03:15:00;1.3;;;1.2;;
25443;SDS011;13368;52.346;4.678;2022-08-25T03:20:00;1.3;;;1.2;;
25443;SDS011;13368;52.346;4.678;2022-08-25T03:25:00;1.5;;;1.4;;
25443;SDS011;13368;52.346;4.678;2022-08-25T03:30:00;1.4;;;1.2;;
25443;SDS011;13368;52.346;4.678;2022-08-25T03:35:00;1.8;;;1.0;;
25443;SDS011;13368;52.346;4.678;2022-08-25T03:40:00;1.5;;;1.4;;
25443;SDS011;13368;52.346;4.678;2022-08-25T03:45:00;2.5;;;1.5;;
25443;SDS011;13368;52.346;4.678;2022-08-25T03:50:00;1.5;;;1.4;;
25443;SDS011;13368;52.346;4.678;2022-08-25T03:55:00;2.0;;;1.8;;
25443;SDS011;13368;52.346;4.678;2022-08-25T04:00:00;2.2;;;1.2;;
25443;SDS011;13368;52.346;4.678;2022-08-25T04:05:00;2.3;;;1.9;;
25443;SDS011;13368;52.346;4.678;2022-08-25T04:10:00;2.0;;;1.5;;
25443;SDS011;13368;52.346;4.678;2022-08-25T04:15:00;1.9;;;1.7;;
25443;SDS011;13368;52.346;4.678;2022-08-25T04:20:00;2.0;;;1.3;;
25443;SDS011;13368;52.346;4.678;2022-08-25T04:25:00;1.3;;;1.2;;
25443;SDS011;13368;52.346;4.678;2022-08-25T04:30:00;1.5;;;1.4;;
25443;SDS011;13368;52.346;4.678;2022-08-25T04:35:00;1.6;;;1.4;;
25443;SDS011;13368;52.346;4.678;2022-08-25T04:40:00;3.6;;;2.1;;
25443;SDS011;13368;52.346;4.678;2022-08-25T04:45:00;1.4;;;1.3;;
25443;SDS011;13368;52.346;4.678;2022-08-25T04:50:00;1.4;;;1.3;;
25443;SDS011;13368;52.346;4.678;2022-08-25T04:55:00;1.3;;;1.0;;
25443;SDS011;13368;52.346;4.678;2022-08-25T05:00:00;1.4;;;1.3;;
25443;SDS011;13368;52.346;4.678;2022-08-25T05:05:00;1.4;;;1.3;;
25443;SDS011;13368;52.346;4.678;2022-08-25T05:10:00;1.6;;;1.5;;
25443;SDS011;13368;52.346;4.678;2022-08-25T05:15:00;1.0;;;1.0;;
25443;SDS011;13368;52.346;4.678;2022-08-25T05:20:00;1.4;;;1.3;;
25443;SDS011;13368;52.346;4.678;2022-08-25T05:25:00;2.6;;;2.1;;
25443;SDS011;13368;52.346;4.678;2022-08-25T05:30:00;2.0;;;1.5;;
25443;SDS011;13368;52.346;4.678;2022-08-25T05:35:00;1.2;;;1.1;;
25443;SDS011;13368;52.346;4.678;2022-08-25T05:40:00;1.2;;;1.1;;
25443;SDS011;13368;52.346;4.678;2022-08-25T05:45:00;1.7;;;1.4;;
25443;SDS011;13368;52.346;4.678;2022-08-25T05:50:00;1.3;;;1.2;;
25443;SDS011;13368;52.346;4.678;2022-08-25T05:55:00;3.4;;;1.5;;
25443;SDS011;13368;52.346;4.678;2022-08-25T06:00:00;1.2;;;1.0;;
25443;SDS011;13368;52.346;4.678;2022-08-25T06:05:00;1.3;;;1.2;;
25443;SDS011;13368;52.346;4.678;2022-08-25T06:10:00;2.4;;;1.3;;
25443;SDS011;13368;52.346;4.678;2022-08-25T06:15:00;6.0;;;1.8;;
25443;SDS011;13368;52.346;4.678;2022-08-25T06:20:00;3.5;;;2.1;;
25443;SDS011;13368;52.346;4.678;2022-08-25T06:25:00;9.7;;;1.6;;
25443;SDS011;13368;52.346;4.678;2022-08-25T06:30:00;1.4;;;1.2;;
25443;SDS011;13368;52.346;4.678;2022-08-25T06:35:00;1.9;;;1.7;;
25443;SDS011;13368;52.346;4.678;2022-08-25T06:40:00;1.4;;;1.3;;
25443;SDS011;13368;52.346;4.678;2022-08-25T06:45:00;2.0;;;1.9;;
25443;SDS011;13368;52.346;4.678;2022-08-25T06:50:00;2.6;;;1.9;;
25443;SDS011;13368;52.346;4.678;2022-08-25T06:55:00;2.9;;;1.8;;
25443;SDS011;13368;52.346;4.678;2022-08-25T07:00:00;1.9;;;1.5;;
25443;SDS011;13368;52.346;4.678;2022-08-25T07:05:00;2.3;;;1.6;;
25443;SDS011;13368;52.346;4.678;2022-08-25T07:10:00;1.8;;;1.3;;
25443;SDS011;13368;52.346;4.678;2022-08-25T07:15:00;4.2;;;2.2;;
25443;SDS011;13368;52.346;4.678;2022-08-25T07:20:00;6.5;;;1.6;;
25443;SDS011;13368;52.346;4.678;2022-08-25T07:25:00;2.2;;;1.1;;
25443;SDS011;13368;52.346;4.678;2022-08-25T07:30:00;2.0;;;1.8;;
25443;SDS011;13368;52.346;4.678;2022-08-25T07:35:00;1.3;;;1.2;;
25443;SDS011;13368;52.346;4.678;2022-08-25T07:40:01;1.5;;;1.4;;
25443;SDS011;13368;52.346;4.678;2022-08-25T07:45:00;2.5;;;1.9;;
25443;SDS011;13368;52.346;4.678;2022-08-25T07:50:00;3.1;;;2.0;;
25443;SDS011;13368;52.346;4.678;2022-08-25T07:55:00;2.8;;;2.0;;
25443;SDS011;13368;52.346;4.678;2022-08-25T08:00:00;2.5;;;1.8;;
25443;SDS011;13368;52.346;4.678;2022-08-25T08:05:00;2.3;;;1.6;;
25443;SDS011;13368;52.346;4.678;2022-08-25T08:10:00;5.4;;;2.0;;
25443;SDS011;13368;52.346;4.678;2022-08-25T08:15:00;2.4;;;2.0;;
25443;SDS011;13368;52.346;4.678;2022-08-25T08:20:00;2.7;;;1.8;;
25443;SDS011;13368;52.346;4.678;2022-08-25T08:25:00;1.6;;;1.5;;
25443;SDS011;13368;52.346;4.678;2022-08-25T08:30:00;5.2;;;1.6;;
25443;SDS011;13368;52.346;4.678;2022-08-25T08:35:00;2.5;;;1.7;;
25443;SDS011;13368;52.346;4.678;2022-08-25T08:40:00;2.1;;;1.6;;
25443;SDS011;13368;52.346;4.678;2022-08-25T08:45:03;2.6;;;1.4;;
25443;SDS011;13368;52.346;4.678;2022-08-25T08:50:03;1.8;;;1.5;;
25443;SDS011;13368;52.346;4.678;2022-08-25T08:55:00;2.0;;;1.4;;
25443;SDS011;13368;52.346;4.678;2022-08-25T09:00:00;2.1;;;1.9;;
25443;SDS011;13368;52.346;4.678;2022-08-25T09:05:00;1.9;;;1.4;;
25443;SDS011;13368;52.346;4.678;2022-08-25T09:10:00;1.4;;;1.3;;
25443;SDS011;13368;52.346;4.678;2022-08-25T09:15:03;2.0;;;1.4;;
25443;SDS011;13368;52.346;4.678;2022-08-25T09:20:03;2.0;;;1.3;;
25443;SDS011;13368;52.346;4.678;2022-08-25T09:25:01;2.7;;;1.5;;
25443;SDS011;13368;52.346;4.678;2022-08-25T09:30:00;2.5;;;1.5;;
25443;SDS011;13368;52.346;4.678;2022-08-25T09:35:00;1.2;;;1.1;;
25443;SDS011;13368;52.346;4.678;2022-08-25T09:40:00;1.5;;;1.4;;
25443;SDS011;13368;52.346;4.678;2022-08-25T09:45:00;1.2;;;1.1;;
25443;SDS011;13368;52.346;4.678;2022-08-25T09:50:00;1.5;;;1.1;;
25443;SDS011;13368;52.346;4.678;2022-08-25T09:55:13;1.5;;;1.4;;
25443;SDS011;13368;52.346;4.678;2022-08-25T10:05:00;1.7;;;1.1;;
25443;SDS011;13368;52.346;4.678;2022-08-25T10:10:00;3.0;;;1.0;;
25443;SDS011;13368;52.346;4.678;2022-08-25T10:15:00;1.2;;;1.1;;
25443;SDS011;13368;52.346;4.678;2022-08-25T10:25:00;2.1;;;1.3;;
25443;SDS011;13368;52.346;4.678;2022-08-25T10:30:04;2.0;;;1.1;;
25443;SDS011;13368;52.346;4.678;2022-08-25T10:35:01;1.8;;;1.3;;
25443;SDS011;13368;52.346;4.678;2022-08-25T10:40:03;2.3;;;1.6;;
25443;SDS011;13368;52.346;4.678;2022-08-25T10:45:05;2.4;;;1.7;;
25443;SDS011;13368;52.346;4.678;2022-08-25T10:50:01;7.4;;;1.9;;
25443;SDS011;13368;52.346;4.678;2022-08-25T10:55:00;1.5;;;1.4;;
25443;SDS011;13368;52.346;4.678;2022-08-25T11:00:01;2.0;;;1.3;;
25443;SDS011;13368;52.346;4.678;2022-08-25T11:05:00;1.2;;;1.1;;
25443;SDS011;13368;52.346;4.678;2022-08-25T11:10:02;2.6;;;1.6;;
25443;SDS011;13368;52.346;4.678;2022-08-25T11:15:01;1.9;;;1.0;;
25443;SDS011;13368;52.346;4.678;2022-08-25T11:20:02;2.6;;;1.6;;
25443;SDS011;13368;52.346;4.678;2022-08-25T11:25:01;2.3;;;1.4;;
25443;SDS011;13368;52.346;4.678;2022-08-25T11:30:03;1.9;;;1.1;;
25443;SDS011;13368;52.346;4.678;2022-08-25T11:35:00;3.7;;;1.3;;
25443;SDS011;13368;52.346;4.678;2022-08-25T11:40:04;2.9;;;1.6;;
25443;SDS011;13368;52.346;4.678;2022-08-25T11:45:02;1.8;;;1.3;;
25443;SDS011;13368;52.346;4.678;2022-08-25T11:50:01;2.6;;;1.5;;
25443;SDS011;13368;52.346;4.678;2022-08-25T11:55:04;2.9;;;1.8;;
25443;SDS011;13368;52.346;4.678;2022-08-25T12:00:01;6.2;;;2.0;;
25443;SDS011;13368;52.346;4.678;2022-08-25T12:05:00;2.0;;;1.2;;
25443;SDS011;13368;52.346;4.678;2022-08-25T12:20:00;1.8;;;1.4;;
25443;SDS011;13368;52.346;4.678;2022-08-25T12:25:00;2.3;;;1.4;;
25443;SDS011;13368;52.346;4.678;2022-08-25T12:30:00;3.1;;;1.7;;
25443;SDS011;13368;52.346;4.678;2022-08-25T12:40:00;1.8;;;1.4;;
25443;SDS011;13368;52.346;4.678;2022-08-25T12:45:08;2.6;;;2.1;;
25443;SDS011;13368;52.346;4.678;2022-08-25T12:55:02;4.3;;;2.3;;
25443;SDS011;13368;52.346;4.678;2022-08-25T13:00:00;3.4;;;1.8;;
25443;SDS011;13368;52.346;4.678;2022-08-25T13:05:02;3.3;;;1.9;;
25443;SDS011;13368;52.346;4.678;2022-08-25T13:15:00;6.1;;;2.1;;
25443;SDS011;13368;52.346;4.678;2022-08-25T13:25:00;3.2;;;2.3;;
25443;SDS011;13368;52.346;4.678;2022-08-25T13:30:00;3.8;;;2.5;;
25443;SDS011;13368;52.346;4.678;2022-08-25T13:35:10;3.1;;;1.7;;
25443;SDS011;13368;52.346;4.678;2022-08-25T13:40:08;3.4;;;2.5;;
25443;SDS011;13368;52.346;4.678;2022-08-25T13:45:00;2.6;;;2.1;;
25443;SDS011;13368;52.346;4.678;2022-08-25T13:55:00;2.9;;;2.4;;
25443;SDS011;13368;52.346;4.678;2022-08-25T14:00:02;5.7;;;2.9;;
25443;SDS011;13368;52.346;4.678;2022-08-25T14:05:00;2.9;;;2.4;;
25443;SDS011;13368;52.346;4.678;2022-08-25T14:10:01;2.8;;;2.2;;
25443;SDS011;13368;52.346;4.678;2022-08-25T14:15:01;3.1;;;2.4;;
25443;SDS011;13368;52.346;4.678;2022-08-25T14:20:00;3.8;;;2.3;;
25443;SDS011;13368;52.346;4.678;2022-08-25T14:25:00;4.8;;;2.2;;
25443;SDS011;13368;52.346;4.678;2022-08-25T14:30:00;3.6;;;2.0;;
25443;SDS011;13368;52.346;4.678;2022-08-25T14:35:00;3.0;;;2.3;;
25443;SDS011;13368;52.346;4.678;2022-08-25T14:40:00;3.7;;;2.4;;
25443;SDS011;13368;52.346;4.678;2022-08-25T14:45:00;7.1;;;2.9;;
25443;SDS011;13368;52.346;4.678;2022-08-25T14:50:00;7.2;;;2.4;;
25443;SDS011;13368;52.346;4.678;2022-08-25T14:55:00;3.1;;;2.5;;
25443;SDS011;13368;52.346;4.678;2022-08-25T15:00:00;4.0;;;1.8;;
25443;SDS011;13368;52.346;4.678;2022-08-25T15:05:00;3.1;;;1.7;;
25443;SDS011;13368;52.346;4.678;2022-08-25T15:10:01;5.4;;;2.2;;
25443;SDS011;13368;52.346;4.678;2022-08-25T15:15:00;5.0;;;2.3;;
25443;SDS011;13368;52.346;4.678;2022-08-25T15:20:00;11.6;;;6.0;;
25443;SDS011;13368;52.346;4.678;2022-08-25T15:25:00;14.3;;;5.1;;
25443;SDS011;13368;52.346;4.678;2022-08-25T15:30:00;9.3;;;3.2;;
25443;SDS011;13368;52.346;4.678;2022-08-25T15:35:00;7.9;;;4.0;;
25443;SDS011;13368;52.346;4.678;2022-08-25T15:40:00;7.0;;;3.7;;
25443;SDS011;13368;52.346;4.678;2022-08-25T15:45:00;6.9;;;3.7;;
25443;SDS011;13368;52.346;4.678;2022-08-25T15:50:01;6.5;;;3.5;;
25443;SDS011;13368;52.346;4.678;2022-08-25T15:55:00;5.9;;;3.3;;
25443;SDS011;13368;52.346;4.678;2022-08-25T16:00:00;4.4;;;3.3;;
25443;SDS011;13368;52.346;4.678;2022-08-25T16:05:00;3.9;;;3.3;;
25443;SDS011;13368;52.346;4.678;2022-08-25T16:10:00;5.0;;;3.1;;
25443;SDS011;13368;52.346;4.678;2022-08-25T16:15:00;7.2;;;3.9;;
25443;SDS011;13368;52.346;4.678;2022-08-25T16:20:00;7.2;;;3.9;;
25443;SDS011;13368;52.346;4.678;2022-08-25T16:25:00;5.0;;;3.5;;
25443;SDS011;13368;52.346;4.678;2022-08-25T16:30:00;9.7;;;3.9;;
25443;SDS011;13368;52.346;4.678;2022-08-25T16:35:00;12.8;;;4.0;;
25443;SDS011;13368;52.346;4.678;2022-08-25T16:40:00;4.1;;;3.5;;
25443;SDS011;13368;52.346;4.678;2022-08-25T16:45:00;8.7;;;3.3;;
25443;SDS011;13368;52.346;4.678;2022-08-25T16:50:00;5.8;;;3.7;;
25443;SDS011;13368;52.346;4.678;2022-08-25T16:55:00;6.1;;;3.5;;
25443;SDS011;13368;52.346;4.678;2022-08-25T17:00:00;6.3;;;3.2;;
25443;SDS011;13368;52.346;4.678;2022-08-25T17:05:00;4.8;;;3.4;;
25443;SDS011;13368;52.346;4.678;2022-08-25T17:10:00;5.0;;;3.1;;
25443;SDS011;13368;52.346;4.678;2022-08-25T17:15:00;4.4;;;2.7;;
25443;SDS011;13368;52.346;4.678;2022-08-25T17:20:00;3.3;;;2.7;;
25443;SDS011;13368;52.346;4.678;2022-08-25T17:25:00;4.3;;;2.7;;
25443;SDS011;13368;52.346;4.678;2022-08-25T17:30:00;7.3;;;2.6;;
25443;SDS011;13368;52.346;4.678;2022-08-25T17:35:00;3.5;;;2.7;;
25443;SDS011;13368;52.346;4.678;2022-08-25T17:40:00;3.4;;;2.8;;
25443;SDS011;13368;52.346;4.678;2022-08-25T17:45:00;4.1;;;2.9;;
25443;SDS011;13368;52.346;4.678;2022-08-25T17:50:00;5.5;;;3.3;;
25443;SDS011;13368;52.346;4.678;2022-08-25T17:55:00;4.7;;;3.1;;
25443;SDS011;13368;52.346;4.678;2022-08-25T18:00:00;4.3;;;3.3;;
25443;SDS011;13368;52.346;4.678;2022-08-25T18:05:00;3.6;;;2.0;;
25443;SDS011;13368;52.346;4.678;2022-08-25T18:10:00;6.5;;;2.1;;
25443;SDS011;13368;52.346;4.678;2022-08-25T18:15:00;4.0;;;2.9;;
25443;SDS011;13368;52.346;4.678;2022-08-25T18:20:00;4.7;;;2.6;;
25443;SDS011;13368;52.346;4.678;2022-08-25T18:25:00;5.0;;;3.0;;
25443;SDS011;13368;52.346;4.678;2022-08-25T18:30:00;2.7;;;2.4;;
25443;SDS011;13368;52.346;4.678;2022-08-25T18:35:00;2.7;;;2.2;;
25443;SDS011;13368;52.346;4.678;2022-08-25T18:40:00;3.6;;;2.7;;
25443;SDS011;13368;52.346;4.678;2022-08-25T18:45:00;4.3;;;3.0;;
25443;SDS011;13368;52.346;4.678;2022-08-25T18:50:00;2.2;;;2.0;;
25443;SDS011;13368;52.346;4.678;2022-08-25T18:55:00;2.1;;;1.9;;
25443;SDS011;13368;52.346;4.678;2022-08-25T19:00:00;13.3;;;2.1;;
25443;SDS011;13368;52.346;4.678;2022-08-25T19:05:00;3.5;;;2.3;;
25443;SDS011;13368;52.346;4.678;2022-08-25T19:10:00;4.0;;;3.2;;
25443;SDS011;13368;52.346;4.678;2022-08-25T19:15:00;9.7;;;3.5;;
25443;SDS011;13368;52.346;4.678;2022-08-25T19:20:00;5.9;;;3.0;;
25443;SDS011;13368;52.346;4.678;2022-08-25T19:25:00;4.2;;;3.2;;
25443;SDS011;13368;52.346;4.678;2022-08-25T19:30:00;6.4;;;3.7;;
25443;SDS011;13368;52.346;4.678;2022-08-25T19:35:00;6.8;;;3.1;;
25443;SDS011;13368;52.346;4.678;2022-08-25T19:40:00;6.3;;;3.2;;
25443;SDS011;13368;52.346;4.678;2022-08-25T19:45:00;4.8;;;2.5;;
25443;SDS011;13368;52.346;4.678;2022-08-25T19:50:00;4.3;;;3.1;;
25443;SDS011;13368;52.346;4.678;2022-08-25T19:55:00;4.3;;;2.8;;
25443;SDS011;13368;52.346;4.678;2022-08-25T20:00:00;5.5;;;3.2;;
25443;SDS011;13368;52.346;4.678;2022-08-25T20:05:00;4.8;;;2.7;;
25443;SDS011;13368;52.346;4.678;2022-08-25T20:10:00;3.7;;;2.0;;
25443;SDS011;13368;52.346;4.678;2022-08-25T20:15:00;3.9;;;2.5;;
25443;SDS011;13368;52.346;4.678;2022-08-25T20:20:00;2.7;;;2.0;;
25443;SDS011;13368;52.346;4.678;2022-08-25T20:25:00;2.5;;;2.1;;
25443;SDS011;13368;52.346;4.678;2022-08-25T20:30:00;2.1;;;1.6;;
25443;SDS011;13368;52.346;4.678;2022-08-25T20:35:00;1.2;;;1.1;;
25443;SDS011;13368;52.346;4.678;2022-08-25T20:40:00;1.7;;;1.5;;
25443;SDS011;13368;52.346;4.678;2022-08-25T20:45:00;6.0;;;1.7;;
25443;SDS011;13368;52.346;4.678;2022-08-25T20:50:00;1.5;;;1.3;;
25443;SDS011;13368;52.346;4.678;2022-08-25T20:55:00;2.8;;;1.2;;
25443;SDS011;13368;52.346;4.678;2022-08-25T21:00:00;1.7;;;1.1;;
25443;SDS011;13368;52.346;4.678;2022-08-25T21:05:00;5.8;;;1.1;;
25443;SDS011;13368;52.346;4.678;2022-08-25T21:10:00;1.0;;;0.9;;
25443;SDS011;13368;52.346;4.678;2022-08-25T21:15:00;1.4;;;1.1;;
25443;SDS011;13368;52.346;4.678;2022-08-25T21:20:00;1.4;;;1.1;;
25443;SDS011;13368;52.346;4.678;2022-08-25T21:25:00;1.4;;;1.3;;
25443;SDS011;13368;52.346;4.678;2022-08-25T21:30:00;0.9;;;0.9;;
25443;SDS011;13368;52.346;4.678;2022-08-25T21:35:00;0.8;;;0.8;;
25443;SDS011;13368;52.346;4.678;2022-08-25T21:40:00;3.2;;;1.0;;
25443;SDS011;13368;52.346;4.678;2022-08-25T21:45:00;0.9;;;0.9;;
25443;SDS011;13368;52.346;4.678;2022-08-25T21:50:00;1.6;;;0.7;;
25443;SDS011;13368;52.346;4.678;2022-08-25T21:55:00;1.8;;;0.8;;
25443;SDS011;13368;52.346;4.678;2022-08-25T22:00:00;1.4;;;1.0;;
25443;SDS011;13368;52.346;4.678;2022-08-25T22:05:00;1.5;;;0.8;;
25443;SDS011;13368;52.346;4.678;2022-08-25T22:10:00;0.8;;;0.7;;
25443;SDS011;13368;52.346;4.678;2022-08-25T22:15:00;2.9;;;1.2;;
25443;SDS011;13368;52.346;4.678;2022-08-25T22:20:00;1.4;;;1.0;;
25443;SDS011;13368;52.346;4.678;2022-08-25T22:25:00;0.8;;;0.8;;
25443;SDS011;13368;52.346;4.678;2022-08-25T22:30:00;1.2;;;0.8;;
25443;SDS011;13368;52.346;4.678;2022-08-25T22:35:00;1.2;;;0.7;;
25443;SDS011;13368;52.346;4.678;2022-08-25T22:40:00;1.5;;;0.9;;
25443;SDS011;13368;52.346;4.678;2022-08-25T22:45:02;0.6;;;0.6;;
25443;SDS011;13368;52.346;4.678;2022-08-25T22:50:00;1.3;;;1.0;;
25443;SDS011;13368;52.346;4.678;2022-08-25T22:55:00;0.9;;;0.8;;
25443;SDS011;13368;52.346;4.678;2022-08-25T23:00:00;0.8;;;0.8;;
25443;SDS011;13368;52.346;4.678;2022-08-25T23:05:00;0.8;;;0.8;;
25443;SDS011;13368;52.346;4.678;2022-08-25T23:10:00;1.5;;;1.1;;
25443;SDS011;13368;52.346;4.678;2022-08-25T23:15:00;1.4;;;1.2;;
25443;SDS011;13368;52.346;4.678;2022-08-25T23:20:00;1.1;;;0.8;;
25443;SDS011;13368;52.346;4.678;2022-08-25T23:25:00;0.8;;;0.8;;
25443;SDS011;13368;52.346;4.678;2022-08-25T23:30:00;1.7;;;0.9;;
25443;SDS011;13368;52.346;4.678;2022-08-25T23:35:00;2.4;;;0.9;;
25443;SDS011;13368;52.346;4.678;2022-08-25T23:40:00;1.0;;;0.9;;
25443;SDS011;13368;52.346;4.678;2022-08-25T23:45:00;2.1;;;1.1;;
25443;SDS011;13368;52.346;4.678;2022-08-25T23:50:01;0.7;;;0.7;;
25443;SDS011;13368;52.346;4.678;2022-08-25T23:55:00;1.1;;;1.0;;
